Archival Weather

Bob Hope

Burbank, California (KBUR)

Report from: Monday, January 29, 2024 2:53 AM PST
Current time: Friday, June 14, 2024 5:29 AM PDT

Current weather – Weather history – Daily summaries
Weather forecast

Temperature11.1°C (52.0°F)
Dew point3.9°C (39.0°F)
Winds 3 kts (1.5 m/s, 3.5 mph) North-Northwest (340°)
Visibility10 mi. (16.1 km)
Clouds Sky clear
Altimeter30.13 in.Hg (1020 mB)
Relative humidity61 %
Density altitude-554 ft. (-169 m)
Sea-level pressure101.9 kPa (1019 mB, 30.10 in.Hg)
Remarks Automated weather observing station with precipitation discriminator
Flight conditions Visual Meteorological Conditions
Raw dataKBUR 291053Z 34003KT 10SM CLR 11/04 A3013 RMK AO2 SLP194 T01110039
An error has occurred. This application may no longer respond until reloaded. Reload 🗙